CheckWX is a tool to help pilots better visualize weather data.  It is not intended as a substitute for an official pre-flight weather briefing.

08:55:14 UTC

KOMA TAF
Eppley Airfield Airport
Omaha, Nebraska, USA
KOMA 180520Z 1806/1906 03005KT P6SM VCSH SCT060 OVC100 FM181000 08005KT P6SM VCSH BKN050 FM181400 04005KT P6SM VCSH OVC025

Jun-18@
06:00 UTC

Jun-18 @ 06:00 UTC

Jun-18@
10:00 UTC

Jun-18 @ 10:00 UTC

KOMA 180520Z 1806/1906 03005KT P6SM VCSH SCT060 OVC100
Wind
  • 030° at 5 KTS
Cloud Levels
  • Scattered at 6,000' AGL
  • Overcast at 10,000' AGL

Jun-18@
10:00 UTC

Jun-18 @ 10:00 UTC

Jun-18@
14:00 UTC

Jun-18 @ 14:00 UTC

FM181000 08005KT P6SM VCSH BKN050

From

From Standard forecast or significant change

Wind
  • 080° at 5 KTS
Cloud Levels
  • Broken at 5,000' AGL

Jun-18@
14:00 UTC

Jun-18 @ 14:00 UTC

Jun-19@
06:00 UTC

Jun-19 @ 06:00 UTC

FM181400 04005KT P6SM VCSH OVC025

From

From Standard forecast or significant change

Wind
  • 040° at 5 KTS
Cloud Levels
  • Overcast at 2,500' AGL